createdAt,value
2023-04-29T00:01:29.493Z,31.45
2023-04-29T00:03:56.080Z,29.73
2023-04-29T00:06:23.601Z,28.75
2023-04-29T00:08:52.020Z,32.70
2023-04-29T00:11:18.543Z,32.88
2023-04-29T00:13:45.017Z,33.95
2023-04-29T00:16:11.538Z,30.70
2023-04-29T00:18:38.061Z,34.92
2023-04-29T00:21:07.600Z,32.63
2023-04-29T00:23:34.667Z,33.47
2023-04-29T00:26:04.222Z,35.15
2023-04-29T00:28:30.990Z,37.20
2023-04-29T00:30:58.011Z,35.70
2023-04-29T00:33:24.762Z,29.85
2023-04-29T00:35:51.285Z,28.40
2023-04-29T00:38:19.124Z,29.77
2023-04-29T00:40:45.932Z,33.13
2023-04-29T00:43:12.686Z,31.35
2023-04-29T00:45:39.865Z,31.60
2023-04-29T00:48:06.468Z,32.80
2023-04-29T00:50:33.150Z,34.00
2023-04-29T00:53:00.823Z,33.95
2023-04-29T00:55:28.388Z,31.13
2023-04-29T00:57:55.033Z,29.20
2023-04-29T01:00:21.664Z,27.35
2023-04-29T01:02:49.534Z,29.80
2023-04-29T01:05:16.118Z,33.08
2023-04-29T01:07:56.187Z,32.85
2023-04-29T01:10:44.302Z,24.27
2023-04-29T01:13:58.565Z,32.75
2023-04-29T01:16:43.157Z,30.92
2023-04-29T01:19:48.073Z,27.17
2023-04-29T01:22:14.795Z,27.30
2023-04-29T01:24:43.298Z,28.10
2023-04-29T01:27:24.110Z,26.00
2023-04-29T01:29:59.539Z,25.25
2023-04-29T01:32:54.182Z,25.95
2023-04-29T01:35:43.933Z,27.08
2023-04-29T01:38:42.143Z,29.05
2023-04-29T01:41:19.046Z,22.23
2023-04-29T01:43:50.382Z,24.02
2023-04-29T01:46:21.527Z,26.17
2023-04-29T01:48:48.090Z,26.15
2023-04-29T01:53:41.219Z,27.10
2023-04-29T01:56:08.394Z,26.40
2023-04-29T01:58:35.095Z,30.23
2023-04-29T02:01:01.633Z,26.80
2023-04-29T02:03:28.248Z,25.73
2023-04-29T02:05:55.048Z,25.35
2023-04-29T02:08:23.912Z,25.30
2023-04-29T02:10:57.627Z,29.38
2023-04-29T02:13:24.248Z,27.00
2023-04-29T02:15:50.906Z,25.85
2023-04-29T02:18:17.418Z,28.83
2023-04-29T02:20:44.142Z,25.95
2023-04-29T02:23:10.771Z,20.70
2023-04-29T02:25:37.374Z,27.20
2023-04-29T02:28:03.935Z,28.90
2023-04-29T02:30:30.768Z,27.55
2023-04-29T02:32:57.376Z,21.05
2023-04-29T02:35:23.953Z,22.85
2023-04-29T02:37:50.437Z,20.17
2023-04-29T02:40:16.945Z,26.23
2023-04-29T02:42:43.740Z,22.10
2023-04-29T02:45:13.555Z,19.63
2023-04-29T02:47:41.305Z,20.60
2023-04-29T02:50:08.248Z,20.15
2023-04-29T02:52:35.014Z,22.25
2023-04-29T02:55:01.605Z,20.60
2023-04-29T02:57:29.826Z,19.88
2023-04-29T02:59:56.719Z,20.58
2023-04-29T03:02:23.369Z,20.08
2023-04-29T03:04:49.913Z,21.08
2023-04-29T03:07:17.383Z,22.92
2023-04-29T03:09:43.921Z,21.65
2023-04-29T03:12:10.496Z,18.15
2023-04-29T03:14:36.919Z,19.65
2023-04-29T03:19:30.794Z,18.63
2023-04-29T03:21:57.338Z,22.13
2023-04-29T03:24:23.784Z,21.80
2023-04-29T03:29:16.612Z,19.85
2023-04-29T03:31:43.500Z,18.20
2023-04-29T03:34:10.465Z,21.00
2023-04-29T03:36:37.083Z,20.48
2023-04-29T03:39:04.218Z,20.70
2023-04-29T03:41:35.983Z,23.20
2023-04-29T03:44:02.558Z,18.45
2023-04-29T03:46:29.344Z,21.02
2023-04-29T03:49:00.467Z,22.35
2023-04-29T03:51:27.331Z,19.30
2023-04-29T03:53:59.161Z,17.58
2023-04-29T03:56:25.832Z,19.80
2023-04-29T03:58:53.272Z,19.00
2023-04-29T04:01:19.882Z,21.27
2023-04-29T04:03:46.596Z,18.02
2023-04-29T04:06:13.166Z,22.13
2023-04-29T04:08:41.070Z,19.63
2023-04-29T04:11:08.640Z,19.48
2023-04-29T04:13:35.900Z,20.98
2023-04-29T04:16:02.689Z,20.23
2023-04-29T04:18:29.253Z,17.75
2023-04-29T04:23:22.112Z,20.38
2023-04-29T04:25:49.280Z,16.63
2023-04-29T04:28:18.213Z,18.08
2023-04-29T04:30:46.559Z,24.92
2023-04-29T04:33:13.001Z,16.13
2023-04-29T04:35:39.807Z,17.90
2023-04-29T04:38:06.270Z,18.02
2023-04-29T04:40:35.781Z,16.00
2023-04-29T04:43:02.472Z,16.67
2023-04-29T04:45:30.203Z,16.40
2023-04-29T04:47:57.149Z,15.07
2023-04-29T04:50:23.661Z,16.92
2023-04-29T04:52:50.129Z,18.73
2023-04-29T04:57:43.013Z,15.55
2023-04-29T05:00:10.170Z,19.48
2023-04-29T05:02:36.832Z,17.40
2023-04-29T05:05:03.765Z,21.08
2023-04-29T05:07:30.564Z,17.67
2023-04-29T05:09:57.253Z,16.38
2023-04-29T05:12:30.501Z,20.17
2023-04-29T05:14:58.140Z,18.98
2023-04-29T05:17:32.018Z,15.10
2023-04-29T05:19:58.614Z,17.05
2023-04-29T05:22:25.182Z,16.48
2023-04-29T05:24:54.276Z,15.80
2023-04-29T05:27:21.097Z,18.02
2023-04-29T05:29:47.690Z,17.90
2023-04-29T05:32:14.406Z,16.58
2023-04-29T05:34:41.308Z,14.82
2023-04-29T05:37:08.378Z,17.00
2023-04-29T05:39:35.620Z,18.20
2023-04-29T05:42:03.410Z,17.00
2023-04-29T05:44:30.768Z,17.02
2023-04-29T05:46:57.824Z,17.30
2023-04-29T05:49:25.313Z,19.92
2023-04-29T05:51:52.537Z,17.83
2023-04-29T05:54:20.915Z,15.95
2023-04-29T05:56:48.027Z,16.17
2023-04-29T05:59:15.570Z,19.90
2023-04-29T06:01:44.020Z,18.77
2023-04-29T06:04:11.358Z,14.98
2023-04-29T06:06:39.980Z,22.88
2023-04-29T06:09:16.323Z,17.83
2023-04-29T06:11:51.326Z,19.52
2023-04-29T06:14:18.353Z,18.52
2023-04-29T06:16:45.570Z,21.15
2023-04-29T06:19:13.108Z,18.25
2023-04-29T06:21:40.185Z,16.92
2023-04-29T06:24:08.590Z,21.70
2023-04-29T06:26:35.840Z,20.58
2023-04-29T06:29:03.026Z,17.90
2023-04-29T06:31:30.298Z,17.25
2023-04-29T06:33:57.662Z,15.85
2023-04-29T06:36:25.132Z,17.67
2023-04-29T06:38:55.674Z,18.90
2023-04-29T06:41:25.931Z,19.50
2023-04-29T06:43:52.933Z,19.60
2023-04-29T06:46:19.998Z,18.55
2023-04-29T06:48:47.126Z,17.73
2023-04-29T06:51:14.117Z,17.42
2023-04-29T06:53:41.223Z,17.75
2023-04-29T06:56:08.410Z,18.67
2023-04-29T06:58:36.029Z,19.13
2023-04-29T07:01:07.392Z,17.02
2023-04-29T07:03:34.948Z,17.65
2023-04-29T07:06:02.112Z,15.30
2023-04-29T07:08:29.384Z,15.38
2023-04-29T07:10:57.691Z,17.52
2023-04-29T07:13:25.751Z,20.35
2023-04-29T07:15:53.028Z,18.13
2023-04-29T07:18:20.434Z,15.93
2023-04-29T07:20:51.494Z,16.45
2023-04-29T07:23:18.742Z,13.75
2023-04-29T07:25:46.109Z,13.95
2023-04-29T07:28:16.609Z,16.63
2023-04-29T07:30:43.894Z,16.00
2023-04-29T07:33:11.242Z,14.82
2023-04-29T07:35:38.536Z,15.73
2023-04-29T07:38:06.168Z,18.65
2023-04-29T07:40:33.304Z,18.88
2023-04-29T07:43:06.619Z,14.57
2023-04-29T07:45:35.243Z,14.82
2023-04-29T07:48:02.627Z,13.68
2023-04-29T07:50:30.043Z,13.55
2023-04-29T07:52:58.326Z,12.63
2023-04-29T07:55:28.535Z,13.20
2023-04-29T07:57:59.330Z,12.57
2023-04-29T08:00:29.281Z,13.57
2023-04-29T08:02:57.269Z,16.05
2023-04-29T08:05:28.352Z,11.02
2023-04-29T08:07:55.686Z,11.90
2023-04-29T08:10:23.203Z,12.15
2023-04-29T08:12:50.754Z,12.82
2023-04-29T08:15:18.720Z,8.60
2023-04-29T08:17:46.154Z,11.15
2023-04-29T08:20:15.800Z,12.10
2023-04-29T08:22:42.938Z,10.77
2023-04-29T08:25:11.242Z,12.13
2023-04-29T08:27:38.415Z,9.18
2023-04-29T08:30:06.359Z,9.30
2023-04-29T08:32:34.648Z,10.57
2023-04-29T08:35:02.062Z,10.45
2023-04-29T08:37:29.422Z,10.23
2023-04-29T08:39:59.794Z,11.77
2023-04-29T08:42:35.042Z,9.60
2023-04-29T08:45:02.748Z,11.93
2023-04-29T08:47:35.344Z,9.23
2023-04-29T08:50:05.643Z,13.18
2023-04-29T08:52:33.304Z,12.70
2023-04-29T08:55:03.643Z,9.32
2023-04-29T08:57:31.270Z,10.35
2023-04-29T09:00:02.971Z,12.13
2023-04-29T09:02:30.423Z,8.05
2023-04-29T09:05:09.904Z,10.48
2023-04-29T09:07:40.487Z,9.75
2023-04-29T09:10:08.764Z,9.95
2023-04-29T09:12:36.302Z,11.20
2023-04-29T09:15:04.822Z,11.20
2023-04-29T09:17:58.142Z,11.10
2023-04-29T09:20:30.964Z,10.77
2023-04-29T09:23:01.506Z,13.05
2023-04-29T09:25:28.898Z,11.15
2023-04-29T09:27:56.525Z,10.70
2023-04-29T09:30:25.417Z,11.20
2023-04-29T09:33:20.359Z,9.70
2023-04-29T09:35:49.197Z,11.65
2023-04-29T09:38:17.453Z,9.60
2023-04-29T09:40:57.503Z,9.82
2023-04-29T09:43:26.871Z,9.75
2023-04-29T09:45:55.395Z,10.05
2023-04-29T09:48:22.717Z,9.13
2023-04-29T09:51:02.151Z,11.60
2023-04-29T09:53:32.571Z,7.38
2023-04-29T09:56:03.932Z,8.93
2023-04-29T09:58:39.163Z,9.43
2023-04-29T10:01:07.099Z,13.82
2023-04-29T10:03:38.976Z,7.88
2023-04-29T10:06:07.637Z,8.70
2023-04-29T10:08:35.870Z,8.88
2023-04-29T10:11:04.068Z,7.35
2023-04-29T10:13:31.568Z,9.40
2023-04-29T10:16:08.789Z,9.45
2023-04-29T10:18:38.154Z,9.50
2023-04-29T10:21:12.447Z,10.93
2023-04-29T10:23:43.504Z,9.77
2023-04-29T10:26:14.157Z,8.00
2023-04-29T10:28:42.974Z,8.32
2023-04-29T10:31:13.651Z,10.23
2023-04-29T10:33:44.657Z,7.63
2023-04-29T10:36:12.927Z,9.43
2023-04-29T10:38:49.010Z,8.50
2023-04-29T10:41:25.352Z,8.00
2023-04-29T10:43:53.557Z,9.43
2023-04-29T10:46:26.938Z,7.97
2023-04-29T10:49:01.886Z,8.52
2023-04-29T10:51:31.608Z,8.25
2023-04-29T10:54:09.167Z,8.70
2023-04-29T10:56:41.951Z,10.35
2023-04-29T10:59:17.586Z,8.27
2023-04-29T11:01:52.531Z,8.15
2023-04-29T11:04:24.213Z,7.53
2023-04-29T11:06:56.763Z,7.47
2023-04-29T11:09:30.858Z,8.85
2023-04-29T11:12:11.620Z,6.95
2023-04-29T11:14:43.857Z,9.90
2023-04-29T11:17:15.506Z,8.02
2023-04-29T11:19:52.208Z,7.65
2023-04-29T11:22:36.359Z,9.57
2023-04-29T11:25:07.481Z,9.77
2023-04-29T11:27:40.425Z,8.43
2023-04-29T11:30:08.229Z,7.72
2023-04-29T11:32:41.089Z,5.70
2023-04-29T11:35:16.389Z,6.75
2023-04-29T11:37:46.458Z,9.52
2023-04-29T11:40:14.886Z,6.07
2023-04-29T11:42:50.418Z,7.88
2023-04-29T11:45:18.643Z,8.07
2023-04-29T11:47:47.473Z,8.02
2023-04-29T11:50:19.296Z,7.20
2023-04-29T11:52:49.886Z,8.07
2023-04-29T11:55:19.307Z,6.45
2023-04-29T11:57:49.867Z,9.27
2023-04-29T12:00:17.161Z,9.35
2023-04-29T12:02:47.921Z,7.63
2023-04-29T12:05:16.128Z,8.90
2023-04-29T12:07:49.621Z,10.30
2023-04-29T12:10:16.969Z,8.63
2023-04-29T12:12:45.613Z,7.05
2023-04-29T12:15:13.599Z,10.77
2023-04-29T12:17:41.378Z,9.57
2023-04-29T12:20:12.771Z,8.65
2023-04-29T12:22:40.025Z,11.15
2023-04-29T12:25:08.108Z,6.90
2023-04-29T12:27:36.296Z,9.88
2023-04-29T12:30:08.347Z,9.32
2023-04-29T12:32:35.568Z,8.88
2023-04-29T12:35:03.095Z,9.63
2023-04-29T12:37:31.515Z,8.40
2023-04-29T12:39:58.786Z,10.45
2023-04-29T12:42:34.020Z,9.80
2023-04-29T12:45:01.113Z,9.00
2023-04-29T12:47:35.228Z,10.05
2023-04-29T12:50:02.152Z,8.15
2023-04-29T12:52:29.343Z,8.38
2023-04-29T12:54:58.138Z,8.45
2023-04-29T12:57:28.425Z,9.90
2023-04-29T12:59:56.068Z,11.73
2023-04-29T13:02:23.582Z,7.45
2023-04-29T13:04:51.137Z,8.55
2023-04-29T13:07:18.432Z,9.18
2023-04-29T13:09:45.397Z,12.57
2023-04-29T13:12:12.273Z,10.00
2023-04-29T13:14:39.677Z,7.35
2023-04-29T13:17:06.932Z,8.32
2023-04-29T13:19:48.217Z,9.98
2023-04-29T13:22:18.133Z,11.10
2023-04-29T13:24:47.062Z,7.88
2023-04-29T13:27:14.161Z,8.02
2023-04-29T13:29:41.216Z,9.73
2023-04-29T13:32:09.088Z,8.35
2023-04-29T13:34:37.919Z,9.68
2023-04-29T13:37:06.594Z,8.30
2023-04-29T13:39:38.122Z,8.00
2023-04-29T13:42:08.993Z,7.72
2023-04-29T13:44:49.807Z,9.00
2023-04-29T13:47:24.993Z,8.55
2023-04-29T13:58:16.755Z,11.00
2023-04-29T14:05:26.006Z,11.35
2023-04-29T14:07:54.478Z,8.60
2023-04-29T14:10:21.526Z,8.10
2023-04-29T14:12:49.068Z,10.82
2023-04-29T14:15:16.630Z,8.55
2023-04-29T14:17:45.397Z,8.60
2023-04-29T14:20:13.584Z,8.18
2023-04-29T14:22:40.913Z,9.10
2023-04-29T14:25:08.602Z,7.60
2023-04-29T14:27:37.248Z,8.50
2023-04-29T14:30:05.493Z,9.00
2023-04-29T14:32:32.616Z,8.07
2023-04-29T14:34:59.681Z,9.50
2023-04-29T14:37:27.034Z,8.70
2023-04-29T14:39:54.034Z,9.35
2023-04-29T14:42:21.053Z,10.43
2023-04-29T14:44:48.144Z,8.52
2023-04-29T14:47:15.209Z,10.55
2023-04-29T14:49:42.872Z,8.50
2023-04-29T14:52:10.079Z,7.72
2023-04-29T14:54:37.492Z,8.45
2023-04-29T14:57:04.456Z,8.18
2023-04-29T14:59:32.770Z,8.52
2023-04-29T15:02:00.205Z,7.72
2023-04-29T15:04:28.224Z,8.98
2023-04-29T15:06:55.463Z,6.97
2023-04-29T15:09:24.917Z,7.70
2023-04-29T15:11:52.363Z,8.05
2023-04-29T15:14:20.631Z,8.57
2023-04-29T15:16:47.722Z,5.75
2023-04-29T15:19:16.958Z,7.95
2023-04-29T15:21:57.197Z,7.72
2023-04-29T15:24:24.442Z,9.68
2023-04-29T15:26:52.949Z,8.00
2023-04-29T15:29:20.043Z,6.05
2023-04-29T15:31:47.359Z,7.40
2023-04-29T15:34:14.522Z,6.15
2023-04-29T15:36:42.125Z,7.70
2023-04-29T15:39:11.549Z,6.10
2023-04-29T15:41:39.093Z,8.10
2023-04-29T15:44:05.924Z,6.25
2023-04-29T15:46:32.716Z,6.78
2023-04-29T15:48:59.582Z,6.88
2023-04-29T15:51:26.399Z,7.60
2023-04-29T15:53:53.288Z,6.45
2023-04-29T15:56:20.113Z,7.05
2023-04-29T15:58:46.821Z,6.47
2023-04-29T16:01:13.842Z,5.60
2023-04-29T16:03:40.950Z,8.50
2023-04-29T16:06:08.170Z,8.75
2023-04-29T16:08:34.825Z,7.18
2023-04-29T16:11:01.561Z,9.38
2023-04-29T16:13:28.221Z,8.13
2023-04-29T16:15:57.956Z,6.53
2023-04-29T16:18:24.736Z,7.22
2023-04-29T16:20:51.402Z,5.65
2023-04-29T16:23:18.365Z,7.50
2023-04-29T16:25:45.160Z,6.43
2023-04-29T16:28:11.948Z,7.63
2023-04-29T16:30:38.591Z,6.72
2023-04-29T16:33:05.278Z,5.63
2023-04-29T16:35:31.845Z,5.15
2023-04-29T16:37:58.482Z,7.13
2023-04-29T16:40:25.219Z,9.82
2023-04-29T16:42:53.738Z,6.63
2023-04-29T16:45:23.126Z,5.18
2023-04-29T16:47:50.645Z,4.75
2023-04-29T16:50:17.648Z,3.58
2023-04-29T16:52:47.329Z,3.08
2023-04-29T16:55:16.390Z,3.58
2023-04-29T16:57:43.089Z,3.50
2023-04-29T17:00:11.166Z,4.45
2023-04-29T17:02:40.326Z,3.55
2023-04-29T17:05:10.994Z,2.22
2023-04-29T17:07:37.740Z,3.17
2023-04-29T17:10:06.683Z,3.58
2023-04-29T17:12:33.593Z,3.35
2023-04-29T17:15:00.697Z,2.83
2023-04-29T17:17:27.527Z,2.65
2023-04-29T17:19:55.657Z,2.92
2023-04-29T17:22:22.504Z,3.00
2023-04-29T17:24:50.234Z,2.35
2023-04-29T17:27:17.033Z,3.60
2023-04-29T17:29:43.663Z,3.20
2023-04-29T17:32:11.456Z,4.10
2023-04-29T17:34:38.131Z,2.80
2023-04-29T17:37:06.111Z,3.88
2023-04-29T17:39:33.511Z,2.42
2023-04-29T17:42:01.175Z,3.55
2023-04-29T17:44:28.197Z,2.90
2023-04-29T17:46:54.860Z,6.60
2023-04-29T17:49:21.517Z,2.33
2023-04-29T17:51:48.016Z,4.30
2023-04-29T17:54:14.598Z,3.53
2023-04-29T17:56:41.276Z,2.72
2023-04-29T17:59:08.741Z,3.63
2023-04-29T18:01:35.780Z,5.00
2023-04-29T18:04:02.406Z,3.88
2023-04-29T18:06:30.377Z,3.85
2023-04-29T18:08:57.049Z,4.90
2023-04-29T18:11:25.230Z,3.45
2023-04-29T18:13:53.077Z,3.35
2023-04-29T18:16:19.668Z,4.95
2023-04-29T18:18:46.243Z,2.75
2023-04-29T18:21:12.715Z,3.35
2023-04-29T18:23:40.585Z,3.45
2023-04-29T18:26:08.376Z,3.58
2023-04-29T18:29:01.859Z,2.75
2023-04-29T18:31:28.509Z,2.63
2023-04-29T18:33:55.103Z,3.70
2023-04-29T18:36:23.622Z,2.50
2023-04-29T18:38:50.660Z,2.97
2023-04-29T18:41:18.269Z,3.45
2023-04-29T18:43:47.324Z,4.45
2023-04-29T18:46:13.899Z,2.75
2023-04-29T18:48:40.691Z,4.53
2023-04-29T18:51:07.425Z,3.78
2023-04-29T18:53:34.478Z,5.63
2023-04-29T18:56:01.130Z,4.80
2023-04-29T18:58:27.773Z,4.68
2023-04-29T19:00:54.616Z,2.90
2023-04-29T19:03:21.801Z,4.22
2023-04-29T19:05:48.732Z,3.25
2023-04-29T19:08:16.515Z,3.30
2023-04-29T19:10:44.236Z,3.65
2023-04-29T19:13:11.678Z,4.88
2023-04-29T19:15:38.657Z,5.18
2023-04-29T19:18:05.209Z,4.25
2023-04-29T19:20:31.996Z,2.88
2023-04-29T19:22:58.640Z,6.18
2023-04-29T19:25:27.809Z,3.65
2023-04-29T19:27:54.464Z,4.22
2023-04-29T19:30:25.856Z,6.07
2023-04-29T19:32:52.599Z,3.75
2023-04-29T19:35:19.098Z,3.63
2023-04-29T19:37:45.792Z,3.63
2023-04-29T19:40:12.462Z,4.38
2023-04-29T19:42:42.073Z,4.45
2023-04-29T19:45:09.569Z,5.43
2023-04-29T19:47:36.381Z,5.72
2023-04-29T19:50:06.169Z,5.43
2023-04-29T19:52:35.335Z,5.85
2023-04-29T19:55:02.077Z,5.70
2023-04-29T19:57:31.248Z,6.05
2023-04-29T19:59:57.770Z,5.55
2023-04-29T20:02:24.390Z,6.97
2023-04-29T20:04:51.396Z,6.55
2023-04-29T20:07:18.137Z,7.97
2023-04-29T20:09:45.790Z,7.13
2023-04-29T20:12:12.475Z,8.40
2023-04-29T20:14:39.085Z,10.32
2023-04-29T20:17:06.236Z,8.15
2023-04-29T20:19:32.831Z,7.15
2023-04-29T20:21:59.442Z,7.53
2023-04-29T20:24:26.800Z,8.43
2023-04-29T20:26:53.341Z,8.18
2023-04-29T20:29:19.947Z,9.38
2023-04-29T20:31:46.521Z,8.57
2023-04-29T20:34:13.364Z,8.98
2023-04-29T20:36:40.049Z,8.82
2023-04-29T20:39:06.915Z,9.63
2023-04-29T20:41:33.444Z,9.35
2023-04-29T20:44:00.116Z,12.68
2023-04-29T20:46:26.756Z,8.80
2023-04-29T20:48:53.636Z,9.13
2023-04-29T20:51:20.282Z,9.80
2023-04-29T20:53:47.362Z,10.93
2023-04-29T20:56:15.834Z,8.38
2023-04-29T20:58:47.539Z,8.40
2023-04-29T21:01:14.098Z,8.60
2023-04-29T21:03:40.858Z,10.13
2023-04-29T21:06:07.610Z,11.32
2023-04-29T21:08:34.277Z,10.48
2023-04-29T21:11:01.634Z,8.15
2023-04-29T21:13:29.506Z,11.10
2023-04-29T21:15:56.042Z,10.88
2023-04-29T21:18:22.719Z,11.63
2023-04-29T21:20:51.292Z,12.35
2023-04-29T21:23:17.881Z,11.23
2023-04-29T21:25:44.823Z,12.30
2023-04-29T21:28:11.498Z,13.55
2023-04-29T21:30:38.207Z,15.75
2023-04-29T21:33:04.833Z,12.18
2023-04-29T21:35:31.399Z,10.63
2023-04-29T21:37:57.963Z,11.18
2023-04-29T21:40:26.507Z,15.05
2023-04-29T21:42:55.246Z,10.98
2023-04-29T21:45:21.871Z,12.10
2023-04-29T21:47:48.929Z,12.43
2023-04-29T21:50:15.787Z,15.02
2023-04-29T21:52:42.503Z,11.13
2023-04-29T21:55:09.429Z,13.20
2023-04-29T21:57:44.104Z,10.75
2023-04-29T22:00:28.260Z,10.18
2023-04-29T22:02:54.795Z,12.13
2023-04-29T22:05:21.601Z,13.88
2023-04-29T22:07:48.127Z,12.35
2023-04-29T22:10:15.871Z,11.57
2023-04-29T22:12:44.353Z,12.23
2023-04-29T22:15:24.618Z,10.50
2023-04-29T22:17:54.707Z,15.48
2023-04-29T22:20:21.439Z,11.07
2023-04-29T22:22:50.536Z,12.18
2023-04-29T22:25:19.362Z,11.50
2023-04-29T22:27:46.464Z,13.18
2023-04-29T22:30:13.845Z,13.05
2023-04-29T22:32:40.756Z,14.40
2023-04-29T22:35:07.781Z,12.25
2023-04-29T22:37:34.350Z,12.45
2023-04-29T22:40:00.911Z,14.85
2023-04-29T22:42:27.374Z,14.40
2023-04-29T22:44:53.866Z,11.63
2023-04-29T22:47:20.437Z,10.32
2023-04-29T22:49:47.360Z,10.55
2023-04-29T22:52:13.887Z,11.15
2023-04-29T22:54:40.534Z,13.15
2023-04-29T22:57:07.485Z,11.48
2023-04-29T22:59:33.968Z,17.90
2023-04-29T23:02:00.544Z,13.20
2023-04-29T23:04:28.818Z,12.88
2023-04-29T23:06:55.510Z,13.27
2023-04-29T23:09:22.050Z,13.85
2023-04-29T23:11:48.576Z,12.27
2023-04-29T23:14:15.127Z,14.80
2023-04-29T23:16:41.649Z,12.68
2023-04-29T23:19:08.174Z,13.23
2023-04-29T23:21:34.704Z,17.83
2023-04-29T23:24:01.215Z,12.05
2023-04-29T23:26:27.704Z,11.68
2023-04-29T23:28:56.937Z,10.98
2023-04-29T23:31:23.509Z,10.63
2023-04-29T23:33:50.103Z,17.95
2023-04-29T23:36:16.595Z,12.52
2023-04-29T23:38:43.152Z,12.75
2023-04-29T23:41:09.607Z,12.73
2023-04-29T23:46:02.855Z,14.13
2023-04-29T23:48:29.459Z,13.27
2023-04-29T23:50:55.995Z,12.77
2023-04-29T23:53:22.508Z,16.63
2023-04-29T23:55:49.574Z,12.05
2023-04-29T23:58:16.103Z,12.65
